M I D A S
Marine Information and Data Acquisition System
Tripno 642 of the Zeeleeuw from 2004-02-04 07:15:13 to 2004-02-04 13:43:02
Back to CruiseResearch ActivitiesStationsMapUnderway DataData graphs

EquipmentUnitsComments
TimeDGPSUTC
LatitudeDGPSDM.mWGS84
LongitudeDGPSDM.mWGS84
SpeedMeteo Stationm/sRelative wind speed
DirectionMeteo StationdegRelative wind direction
TemperatureMeteo Stationdeg CelciusAir temperature
PressureMeteo StationPaAtmospheric pressure
HumidityMeteo Station%Relative humidity
Missing or incorrect values are displayed as -999
Metereological data collected by the RV Zeeleeuw from 2004-02-04 07:15:13 to 2004-02-04 13:43:02
Time Latitude Longitude Speed Direction Temperature Pressure Humidity
2004-02-04 07:16 51°13.594 2°56.108 5.1 73 12.7 102470 74
2004-02-04 07:17 51°13.606 2°56.063 6.7 118 12.7 102460 74
2004-02-04 07:18 51°13.632 2°55.972 5.4 124 12.7 102460 74
2004-02-04 07:19 51°13.643 2°55.926 3.3 142 12.7 102460 74
2004-02-04 07:20 51°13.67 2°55.852 3.5 127 12.7 102470 74
2004-02-04 07:21 51°13.681 2°55.836 5.4 136 12.7 102470 73
2004-02-04 07:22 51°13.677 2°55.763 5.6 181 12.7 102480 73
2004-02-04 07:23 51°13.72 2°55.749 5.1 288 12.8 102480 74
2004-02-04 07:24 51°13.811 2°55.656 3.5 319 12.8 102480 73
2004-02-04 07:25 51°13.926 2°55.561 5.1 282 12.9 102470 73
2004-02-04 07:26 51°14.049 2°55.474 2.2 304 12.9 102480 73
2004-02-04 07:27 51°14.182 2°55.361 5.9 321 12.9 102490 73
2004-02-04 07:28 51°14.316 2°55.17 9 310 12.9 102470 72
2004-02-04 07:29 51°14.476 2°54.951 7.6 288 12.9 102480 72
2004-02-04 07:30 51°14.637 2°54.729 12 299 12.9 102470 72
2004-02-04 07:31 51°14.679 2°54.422 13.5 334 12.8 102440 72
2004-02-04 07:32 51°14.62 2°54.281 10.8 352 12.7 102430 72
2004-02-04 07:33 51°14.574 2°54.223 9.9 359 12.6 102440 73
2004-02-04 07:34 51°14.543 2°54.19 8.7 357 12.6 102440 73
2004-02-04 07:35 51°14.501 2°54.107 11.8 341 12.5 102440 73
2004-02-04 07:36 51°14.401 2°53.84 15.6 348 12.5 102400 73
2004-02-04 07:37 51°14.279 2°53.528 15.3 345 12.4 102420 74
2004-02-04 07:38 51°14.153 2°53.212 15.8 346 12.4 102410 74
2004-02-04 07:39 51°14.029 2°52.89 14.8 348 12.3 102450 74
2004-02-04 07:40 51°13.906 2°52.569 14.6 345 12.2 102470 74
2004-02-04 07:41 51°13.782 2°52.247 13.5 348 12.2 102420 75
2004-02-04 07:42 51°13.658 2°51.926 13.6 348 12.1 102430 75
2004-02-04 07:43 51°13.535 2°51.603 13.7 348 12 102440 75
2004-02-04 07:44 51°13.415 2°51.277 13.6 351 11.9 102430 76
2004-02-04 07:45 51°13.296 2°50.948 14.2 348 11.9 102410 76
2004-02-04 07:46 51°13.177 2°50.621 15.9 350 11.9 102410 76
2004-02-04 07:47 51°13.058 2°50.294 15.6 351 11.9 102410 76
2004-02-04 07:48 51°12.939 2°49.968 15.4 344 12 102410 76
2004-02-04 07:49 51°12.82 2°49.643 15 347 12.1 102410 75
2004-02-04 07:50 51°12.702 2°49.32 18.7 345 12.2 102400 74
2004-02-04 07:51 51°12.584 2°48.997 17.5 345 12.3 102410 73
2004-02-04 07:52 51°12.467 2°48.675 15.9 344 12.3 102390 73
2004-02-04 07:53 51°12.349 2°48.353 17.3 345 12.4 102380 73
2004-02-04 07:54 51°12.233 2°48.03 17.3 345 12.4 102390 72
2004-02-04 07:55 51°12.118 2°47.707 16.1 345 12.5 102380 72
2004-02-04 07:56 51°12.012 2°47.379 17.2 338 12.7 102390 71
2004-02-04 07:57 51°11.908 2°47.049 16.7 342 12.7 102380 71
2004-02-04 07:58 51°11.803 2°46.719 17.3 340 12.6 102400 72
2004-02-04 07:59 51°11.7 2°46.389 16.7 339 12.5 102390 72
2004-02-04 08:00 51°11.597 2°46.056 16.5 337 12.5 102390 72
2004-02-04 08:01 51°11.499 2°45.72 16.2 336 12.5 102390 72
2004-02-04 08:02 51°11.411 2°45.377 16.5 334 12.4 102400 73
2004-02-04 08:03 51°11.324 2°45.033 16.8 333 12.5 102390 72
2004-02-04 08:04 51°11.237 2°44.69 15.9 332 12.5 102380 72
2004-02-04 08:05 51°11.154 2°44.343 14.8 328 12.5 102380 72
2004-02-04 08:06 51°11.085 2°43.988 16.9 332 12.5 102380 72
2004-02-04 08:07 51°11.017 2°43.633 14.4 325 12.7 102380 71
2004-02-04 08:08 51°10.948 2°43.28 15.6 331 12.6 102380 70
2004-02-04 08:09 51°10.881 2°42.925 16.6 332 12.6 102380 71
2004-02-04 08:10 51°10.815 2°42.568 15.7 332 12.6 102400 71
2004-02-04 08:11 51°10.748 2°42.213 15.9 330 12.5 102400 72
2004-02-04 08:12 51°10.681 2°41.857 14.8 331 12.4 102390 72
2004-02-04 08:13 51°10.614 2°41.502 14.5 334 12.4 102380 72
2004-02-04 08:14 51°10.546 2°41.148 14.2 333 12.3 102390 72
2004-02-04 08:15 51°10.48 2°40.793 14 331 12.3 102390 72
2004-02-04 08:16 51°10.418 2°40.44 14.3 331 12.2 102390 73
2004-02-04 08:17 51°10.353 2°40.09 14.9 335 12.2 102400 73
2004-02-04 08:18 51°10.289 2°39.74 13.1 331 12.2 102410 73
2004-02-04 08:19 51°10.225 2°39.389 13.5 331 12.1 102400 73
2004-02-04 08:20 51°10.162 2°39.036 14.1 328 12.1 102400 73
2004-02-04 08:21 51°10.099 2°38.684 14 327 12.1 102400 73
2004-02-04 08:22 51°10.035 2°38.331 13.4 328 12.1 102410 73
2004-02-04 08:23 51°9.972 2°37.978 13.7 331 12.1 102400 74
2004-02-04 08:24 51°9.908 2°37.625 14.2 331 12 102400 74
2004-02-04 08:25 51°9.838 2°37.276 13.2 333 11.9 102410 74
2004-02-04 08:26 51°9.768 2°36.927 12.5 332 11.8 102410 75
2004-02-04 08:27 51°9.697 2°36.577 11.4 336 11.7 102400 75
2004-02-04 08:28 51°9.626 2°36.228 12.1 337 11.6 102410 76
2004-02-04 08:29 51°9.556 2°35.88 13.7 340 11.5 102410 76
2004-02-04 08:30 51°9.496 2°35.615 9.8 327 11.5 102410 75
2004-02-04 08:31 51°9.487 2°35.463 9 296 11.7 102420 74
2004-02-04 08:32 51°9.507 2°35.391 9 273 11.7 102420 73
2004-02-04 08:33 51°9.538 2°35.329 5.8 256 11.8 102430 73
2004-02-04 08:34 51°9.583 2°35.288 5.9 229 11.8 102430 72
2004-02-04 08:35 51°9.634 2°35.272 6.8 214 11.8 102430 72
2004-02-04 08:36 51°9.686 2°35.279 4.1 194 11.9 102420 72
2004-02-04 08:37 51°9.736 2°35.31 6.9 161 12.2 102420 71
2004-02-04 08:38 51°9.778 2°35.362 7.6 141 12.3 102420 70
2004-02-04 08:39 51°9.807 2°35.429 8.4 124 12.3 102410 70
2004-02-04 08:40 51°9.822 2°35.502 8.2 112 12.3 102410 70
2004-02-04 08:41 51°9.825 2°35.576 8.5 98 12.2 102410 70
2004-02-04 08:42 51°9.819 2°35.645 9.6 90 12.1 102400 70
2004-02-04 08:43 51°9.809 2°35.71 7.8 79 12.2 102400 70
2004-02-04 08:44 51°9.792 2°35.768 8.8 70 12.1 102400 70
2004-02-04 08:45 51°9.772 2°35.819 10.1 61 12.2 102390 71
2004-02-04 08:46 51°9.749 2°35.864 9.2 51 12.2 102390 70
2004-02-04 08:47 51°9.724 2°35.903 9.4 44 12.2 102390 70
2004-02-04 08:48 51°9.699 2°35.938 10 42 12.2 102390 70
2004-02-04 08:49 51°9.678 2°35.968 9.9 45 12.3 102390 70
2004-02-04 08:50 51°9.659 2°35.994 10.6 24 12.2 102400 70
2004-02-04 08:51 51°9.622 2°35.959 11.4 313 12.3 102410 70
2004-02-04 08:52 51°9.671 2°35.838 8.1 281 12.3 102400 70
2004-02-04 08:53 51°9.808 2°35.638 7.2 276 12.3 102400 69
2004-02-04 08:54 51°10.028 2°35.533 2.6 246 12.3 102410 70
2004-02-04 08:55 51°10.26 2°35.544 1.4 247 12.3 102420 70
2004-02-04 08:56 51°10.487 2°35.607 1 202 12.3 102400 69
2004-02-04 08:57 51°10.695 2°35.78 2.7 125 12.3 102410 70
2004-02-04 08:58 51°10.896 2°35.98 2.7 148 12.4 102400 69
2004-02-04 08:59 51°11.098 2°36.179 3.2 131 12.3 102400 69
2004-02-04 09:00 51°11.299 2°36.378 2.9 129 12.3 102410 69
2004-02-04 09:01 51°11.5 2°36.581 3.1 143 12.3 102410 70
2004-02-04 09:02 51°11.698 2°36.788 3.5 134 12.3 102400 70
2004-02-04 09:03 51°11.899 2°36.992 2.5 140 12.3 102400 70
2004-02-04 09:04 51°12.098 2°37.197 3 149 12.2 102400 70
2004-02-04 09:05 51°12.297 2°37.398 2.2 151 12.2 102390 70
2004-02-04 09:06 51°12.496 2°37.602 2 154 12.2 102400 70
2004-02-04 09:07 51°12.696 2°37.81 2.4 146 12.2 102420 70
2004-02-04 09:08 51°12.894 2°38.021 3 142 12.2 102410 70
2004-02-04 09:09 51°13.092 2°38.235 1.7 163 12.2 102400 70
2004-02-04 09:10 51°13.289 2°38.45 2.3 153 12.2 102400 70
2004-02-04 09:11 51°13.489 2°38.665 2.3 147 12.1 102400 69
2004-02-04 09:12 51°13.694 2°38.851 2.2 202 12.1 102400 70
2004-02-04 09:13 51°13.918 2°38.96 2.8 243 12.1 102410 70
2004-02-04 09:14 51°14.145 2°39.014 5.7 263 12.1 102400 70
2004-02-04 09:15 51°14.347 2°38.884 11.1 299 12 102400 70
2004-02-04 09:16 51°14.399 2°38.565 16.4 331 11.9 102360 70
2004-02-04 09:17 51°14.317 2°38.238 16.8 337 11.9 102340 71
2004-02-04 09:18 51°14.23 2°37.914 18 335 11.8 102350 71
2004-02-04 09:19 51°14.137 2°37.595 16.3 340 11.8 102340 71
2004-02-04 09:20 51°14.043 2°37.28 16.7 339 11.8 102340 71
2004-02-04 09:21 51°13.951 2°36.966 16.4 340 11.8 102340 71
2004-02-04 09:22 51°13.858 2°36.654 17.1 340 11.7 102340 71
2004-02-04 09:23 51°13.766 2°36.345 16.2 337 11.8 102330 71
2004-02-04 09:24 51°13.674 2°36.035 14.7 340 11.8 102350 71
2004-02-04 09:25 51°13.582 2°35.726 15.3 336 11.7 102350 71
2004-02-04 09:26 51°13.491 2°35.419 14.3 342 11.6 102350 72
2004-02-04 09:27 51°13.401 2°35.112 15.7 342 11.6 102360 72
2004-02-04 09:28 51°13.309 2°34.806 13.8 342 11.6 102370 72
2004-02-04 09:29 51°13.216 2°34.5 15 341 11.5 102360 72
2004-02-04 09:30 51°13.122 2°34.193 13.7 342 11.5 102360 72
2004-02-04 09:31 51°13.029 2°33.887 15.7 340 11.5 102360 73
2004-02-04 09:32 51°12.934 2°33.58 16.3 337 11.5 102360 72
2004-02-04 09:33 51°12.84 2°33.274 16.1 340 11.5 102350 72
2004-02-04 09:34 51°12.747 2°32.967 16.2 344 11.5 102360 72
2004-02-04 09:35 51°12.654 2°32.658 16.7 344 11.6 102350 70
2004-02-04 09:36 51°12.56 2°32.35 18.3 343 12 102330 67
2004-02-04 09:37 51°12.466 2°32.041 17.4 341 12.3 102330 65
2004-02-04 09:38 51°12.373 2°31.73 17 341 12.5 102320 64
2004-02-04 09:39 51°12.281 2°31.418 17.4 338 12.5 102340 64
2004-02-04 09:40 51°12.189 2°31.107 16.5 339 12.5 102320 64
2004-02-04 09:41 51°12.098 2°30.797 16.1 346 12.5 102330 64
2004-02-04 09:42 51°12.009 2°30.486 16.8 340 12.5 102320 64
2004-02-04 09:43 51°11.922 2°30.179 17.6 335 12.5 102310 64
2004-02-04 09:44 51°11.836 2°29.874 16.5 337 12.6 102310 64
2004-02-04 09:45 51°11.753 2°29.577 17.3 341 12.7 102300 64
2004-02-04 09:46 51°11.669 2°29.287 16.5 339 12.7 102320 63
2004-02-04 09:47 51°11.586 2°29.002 17.4 339 12.8 102290 63
2004-02-04 09:48 51°11.502 2°28.718 16.9 340 13 102310 62
2004-02-04 09:49 51°11.418 2°28.432 18.2 343 13.1 102290 62
2004-02-04 09:50 51°11.334 2°28.148 17.5 340 13.1 102290 62
2004-02-04 09:51 51°11.3 2°27.838 15.1 324 13.1 102290 61
2004-02-04 09:52 51°11.328 2°27.516 17.6 324 13.1 102300 62
2004-02-04 09:53 51°11.32 2°27.19 19.7 323 13.1 102280 61
2004-02-04 09:54 51°11.292 2°26.864 17.7 332 13.3 102260 60
2004-02-04 09:55 51°11.26 2°26.542 17.8 333 13.4 102270 60
2004-02-04 09:56 51°11.228 2°26.222 17.9 331 13.5 102260 59
2004-02-04 09:57 51°11.235 2°25.907 16.1 313 13.6 102260 59
2004-02-04 09:58 51°11.38 2°25.672 14 272 13.5 102300 59
2004-02-04 09:59 51°11.611 2°25.656 4.6 255 13.5 102340 59
2004-02-04 10:00 51°11.853 2°25.696 5 228 13.5 102330 59
2004-02-04 10:01 51°12.095 2°25.754 6.9 239 13.4 102330 60
2004-02-04 10:02 51°12.339 2°25.817 5.6 251 13.4 102330 60
2004-02-04 10:03 51°12.583 2°25.878 4.3 255 13.3 102330 60
2004-02-04 10:04 51°12.827 2°25.92 4.7 259 13.2 102320 61
2004-02-04 10:05 51°13.056 2°25.937 5.4 252 13.2 102340 61
2004-02-04 10:06 51°13.226 2°25.968 8.3 229 13.1 102330 61
2004-02-04 10:07 51°13.358 2°26.037 7.1 215 13.1 102330 61
2004-02-04 10:08 51°13.455 2°26.164 10.2 139 13.3 102330 61
2004-02-04 10:09 51°13.482 2°26.299 11.9 121 13.3 102320 61
2004-02-04 10:10 51°13.496 2°26.37 11.8 114 13.2 102330 61
2004-02-04 10:11 51°13.503 2°26.456 11.2 108 13.1 102340 61
2004-02-04 10:12 51°13.506 2°26.546 11.1 104 13 102340 62
2004-02-04 10:13 51°13.506 2°26.622 11.8 83 12.9 102330 62
2004-02-04 10:14 51°13.505 2°26.685 10.7 70 12.9 102300 62
2004-02-04 10:15 51°13.505 2°26.739 11.9 63 12.9 102310 62
2004-02-04 10:16 51°13.504 2°26.789 12 47 12.9 102310 62
2004-02-04 10:17 51°13.5 2°26.829 11.5 23 13 102280 62
2004-02-04 10:18 51°13.494 2°26.845 13.7 339 13.1 102300 61
2004-02-04 10:19 51°13.512 2°26.824 12.1 291 13.1 102270 61
2004-02-04 10:20 51°13.548 2°26.778 12.3 291 13.1 102290 62
2004-02-04 10:21 51°13.594 2°26.747 12 286 13 102290 62
2004-02-04 10:22 51°13.639 2°26.733 13.4 273 12.9 102290 62
2004-02-04 10:23 51°13.687 2°26.731 10.6 262 12.9 102290 62
2004-02-04 10:24 51°13.735 2°26.738 7.2 253 12.9 102300 62
2004-02-04 10:25 51°13.779 2°26.754 8.8 255 12.9 102290 62
2004-02-04 10:26 51°13.84 2°26.762 9.2 240 12.9 102290 62
2004-02-04 10:27 51°13.989 2°26.877 3.1 171 13 102320 62
2004-02-04 10:28 51°14.177 2°27.125 4.2 178 13.4 102320 61
2004-02-04 10:29 51°14.369 2°27.386 2.4 192 13.6 102320 61
2004-02-04 10:30 51°14.561 2°27.651 3.5 180 13.7 102310 61
2004-02-04 10:31 51°14.753 2°27.912 3.6 186 13.7 102310 60
2004-02-04 10:32 51°14.948 2°28.178 3.8 174 13.8 102320 60
2004-02-04 10:33 51°15.14 2°28.443 3.1 196 13.9 102310 59
2004-02-04 10:34 51°15.336 2°28.698 3.9 194 14 102310 59
2004-02-04 10:35 51°15.533 2°28.956 3.5 198 14.1 102310 59
2004-02-04 10:36 51°15.729 2°29.217 2.9 202 14.4 102320 57
2004-02-04 10:37 51°15.923 2°29.471 4.4 190 14.6 102320 57
2004-02-04 10:38 51°16.122 2°29.729 3.4 196 14.6 102320 57
2004-02-04 10:39 51°16.318 2°29.988 3.7 197 14.5 102310 56
2004-02-04 10:40 51°16.518 2°30.241 3.3 204 14.4 102320 58
2004-02-04 10:41 51°16.713 2°30.498 3.7 178 14.6 102320 57
2004-02-04 10:42 51°16.907 2°30.75 3.4 187 14.5 102310 57
2004-02-04 10:43 51°17.1 2°31.003 5.4 164 14.5 102310 57
2004-02-04 10:44 51°17.289 2°31.265 2.5 208 14.4 102320 57
2004-02-04 10:45 51°17.472 2°31.537 3.4 200 14.2 102320 58
2004-02-04 10:46 51°17.663 2°31.796 3.7 196 14.1 102320 58
2004-02-04 10:47 51°17.847 2°32.072 5 161 14.2 102320 58
2004-02-04 10:48 51°18.02 2°32.362 4.3 158 14 102320 58
2004-02-04 10:49 51°18.198 2°32.647 5.7 154 13.8 102320 60
2004-02-04 10:50 51°18.377 2°32.938 4.2 161 13.7 102320 60
2004-02-04 10:51 51°18.546 2°33.231 4.7 156 13.6 102320 61
2004-02-04 10:52 51°18.717 2°33.523 5.2 162 13.4 102330 61
2004-02-04 10:53 51°18.888 2°33.823 3.4 140 13.3 102320 62
2004-02-04 10:54 51°19.054 2°34.133 4.2 162 13.2 102320 62
2004-02-04 10:55 51°19.224 2°34.429 4.7 155 13.1 102320 62
2004-02-04 10:56 51°19.393 2°34.728 3.2 157 13.2 102310 62
2004-02-04 10:57 51°19.554 2°35.027 5.1 158 13.1 102320 62
2004-02-04 10:58 51°19.643 2°35.262 8.5 225 13.1 102320 63
2004-02-04 10:59 51°19.658 2°35.361 12.8 110 13 102300 63
2004-02-04 11:00 51°19.668 2°35.426 13.1 98 12.8 102310 64
2004-02-04 11:01 51°19.663 2°35.502 13.5 84 12.8 102300 64
2004-02-04 11:02 51°19.652 2°35.581 9.4 78 12.9 102310 64
2004-02-04 11:03 51°19.641 2°35.648 13.6 56 12.8 102310 64
2004-02-04 11:04 51°19.637 2°35.71 13 65 12.8 102290 64
2004-02-04 11:05 51°19.626 2°35.771 12.8 59 12.8 102270 64
2004-02-04 11:06 51°19.611 2°35.824 12 43 12.7 102260 64
2004-02-04 11:07 51°19.596 2°35.868 12 33 12.7 102270 65
2004-02-04 11:08 51°19.582 2°35.9 14.2 12 12.7 102270 64
2004-02-04 11:09 51°19.573 2°35.897 11.1 340 12.8 102290 64
2004-02-04 11:10 51°19.597 2°35.863 11.9 286 12.8 102260 64
2004-02-04 11:11 51°19.647 2°35.839 11.8 271 12.8 102260 64
2004-02-04 11:12 51°19.71 2°35.845 8.3 253 12.7 102300 65
2004-02-04 11:13 51°19.775 2°35.891 7.8 206 12.7 102290 65
2004-02-04 11:14 51°19.823 2°35.976 10.6 158 12.7 102300 65
2004-02-04 11:15 51°19.848 2°36.072 11.4 122 12.8 102310 64
2004-02-04 11:16 51°19.86 2°36.158 11.9 113 12.8 102320 64
2004-02-04 11:17 51°19.867 2°36.23 11.2 96 12.8 102310 65
2004-02-04 11:18 51°19.876 2°36.294 10.8 99 12.7 102300 65
2004-02-04 11:19 51°19.858 2°36.417 11.4 108 12.7 102300 65
2004-02-04 11:20 51°19.868 2°36.655 7.5 135 12.7 102320 65
2004-02-04 11:21 51°19.898 2°36.923 8.8 118 12.7 102260 65
2004-02-04 11:22 51°19.921 2°37.199 6.7 122 12.7 102270 65
2004-02-04 11:23 51°19.944 2°37.476 8.1 127 12.7 102290 65
2004-02-04 11:24 51°19.969 2°37.752 9.9 121 12.6 102270 65
2004-02-04 11:25 51°19.991 2°38.028 10.2 123 12.7 102270 65
2004-02-04 11:26 51°20.016 2°38.301 9.7 124 12.7 102260 65
2004-02-04 11:27 51°20.039 2°38.575 9.8 129 12.8 102260 65
2004-02-04 11:28 51°20.058 2°38.849 9.7 119 12.8 102260 65
2004-02-04 11:29 51°20.075 2°39.121 8.6 115 12.8 102260 65
2004-02-04 11:30 51°20.095 2°39.395 7.8 126 12.8 102260 65
2004-02-04 11:31 51°20.118 2°39.67 7.1 123 12.8 102270 65
2004-02-04 11:32 51°20.139 2°39.942 8.4 120 12.8 102260 65
2004-02-04 11:33 51°20.155 2°40.216 9 118 12.7 102260 65
2004-02-04 11:34 51°20.17 2°40.491 10.1 122 12.7 102280 65
2004-02-04 11:35 51°20.185 2°40.769 8.1 115 12.8 102260 65
2004-02-04 11:36 51°20.2 2°41.048 8.6 115 12.8 102250 65
2004-02-04 11:37 51°20.212 2°41.331 8.7 126 12.8 102250 65
2004-02-04 11:38 51°20.222 2°41.615 6.3 131 12.8 102250 65
2004-02-04 11:39 51°20.235 2°41.909 8 118 12.7 102250 65
2004-02-04 11:40 51°20.245 2°42.201 6.4 123 12.8 102250 65
2004-02-04 11:41 51°20.254 2°42.493 8.9 118 12.7 102240 65
2004-02-04 11:42 51°20.262 2°42.804 6.5 116 12.8 102240 65
2004-02-04 11:43 51°20.272 2°43.194 9.1 103 12.8 102210 65
2004-02-04 11:44 51°20.28 2°43.592 10 103 12.8 102200 65
2004-02-04 11:45 51°20.29 2°43.985 9.7 112 12.8 102200 65
2004-02-04 11:46 51°20.302 2°44.376 9 108 12.9 102210 64
2004-02-04 11:47 51°20.313 2°44.78 9.1 110 12.9 102190 64
2004-02-04 11:48 51°20.327 2°45.178 9.3 106 12.8 102200 64
2004-02-04 11:49 51°20.346 2°45.541 10.4 122 12.7 102230 65
2004-02-04 11:50 51°20.349 2°45.768 11.6 113 12.7 102240 65
2004-02-04 11:51 51°20.336 2°45.899 13.7 100 12.5 102230 66
2004-02-04 11:52 51°20.327 2°45.991 12.7 82 12.5 102250 66
2004-02-04 11:53 51°20.315 2°46.071 12.5 70 12.4 102250 66
2004-02-04 11:54 51°20.302 2°46.136 13.8 53 12.5 102250 66
2004-02-04 11:55 51°20.291 2°46.182 12.1 26 12.5 102220 66
2004-02-04 11:56 51°20.28 2°46.198 13.5 347 12.5 102230 66
2004-02-04 11:57 51°20.282 2°46.183 13.6 317 12.5 102220 66
2004-02-04 11:58 51°20.305 2°46.154 12.1 299 12.6 102220 65
2004-02-04 11:59 51°20.337 2°46.122 13.2 290 12.6 102220 66
2004-02-04 12:00 51°20.386 2°46.103 12.6 260 12.5 102230 66
2004-02-04 12:01 51°20.451 2°46.104 8.8 246 12.4 102250 66
2004-02-04 12:02 51°20.525 2°46.145 8.3 203 12.3 102250 67
2004-02-04 12:03 51°20.581 2°46.247 10.4 132 12.4 102260 66
2004-02-04 12:04 51°20.595 2°46.368 12.1 100 12.4 102260 66
2004-02-04 12:05 51°20.578 2°46.467 10.8 71 12.3 102260 67
2004-02-04 12:06 51°20.551 2°46.537 12.5 47 12.2 102240 67
2004-02-04 12:07 51°20.527 2°46.575 12.4 19 12.3 102220 67
2004-02-04 12:08 51°20.521 2°46.594 13.1 352 12.4 102260 67
2004-02-04 12:09 51°20.518 2°46.594 12.5 6 12.4 102250 66
2004-02-04 12:10 51°20.419 2°46.661 13.8 58 12.4 102180 66
2004-02-04 12:11 51°20.263 2°46.904 15.8 57 12.4 102210 67
2004-02-04 12:12 51°20.103 2°47.16 14.7 60 12.3 102200 67
2004-02-04 12:13 51°19.95 2°47.43 14.1 64 12.3 102210 67
2004-02-04 12:14 51°19.803 2°47.707 14.9 70 12.4 102210 66
2004-02-04 12:15 51°19.655 2°47.984 13.7 61 12.4 102200 66
2004-02-04 12:16 51°19.51 2°48.262 14 58 12.5 102210 66
2004-02-04 12:17 51°19.362 2°48.538 16.1 61 12.5 102200 66
2004-02-04 12:18 51°19.219 2°48.82 16.8 65 12.6 102200 66
2004-02-04 12:19 51°19.073 2°49.099 13.5 69 12.7 102200 65
2004-02-04 12:20 51°18.925 2°49.376 13.2 63 12.8 102220 65
2004-02-04 12:21 51°18.776 2°49.647 14.1 60 12.8 102210 65
2004-02-04 12:22 51°18.627 2°49.918 11.9 62 12.7 102220 66
2004-02-04 12:23 51°18.48 2°50.191 13.6 52 12.6 102220 66
2004-02-04 12:24 51°18.334 2°50.465 12.3 56 12.5 102240 67
2004-02-04 12:25 51°18.202 2°50.712 11.2 65 12.5 102220 67
2004-02-04 12:26 51°18.132 2°50.865 9.7 82 12.5 102240 67
2004-02-04 12:27 51°18.106 2°50.938 10.1 61 12.4 102260 67
2004-02-04 12:28 51°18.099 2°50.978 10.5 51 12.5 102250 67
2004-02-04 12:29 51°18.084 2°51.005 9.9 30 12.6 102240 67
2004-02-04 12:30 51°18.066 2°51.007 10.2 4 12.7 102240 66
2004-02-04 12:31 51°18.063 2°50.979 10.2 328 12.8 102250 66
2004-02-04 12:32 51°18.087 2°50.933 10.9 294 12.8 102240 66
2004-02-04 12:33 51°18.134 2°50.893 9.5 287 12.8 102240 66
2004-02-04 12:34 51°18.191 2°50.858 11.1 278 12.8 102240 66
2004-02-04 12:35 51°18.254 2°50.843 6.7 255 12.8 102270 66
2004-02-04 12:36 51°18.317 2°50.854 7.7 246 12.8 102250 66
2004-02-04 12:37 51°18.379 2°50.883 8.3 225 12.8 102260 66
2004-02-04 12:38 51°18.438 2°50.931 8.1 220 12.8 102260 66
2004-02-04 12:39 51°18.492 2°50.997 6.1 184 12.9 102270 66
2004-02-04 12:40 51°18.533 2°51.083 10.5 148 13 102260 65
2004-02-04 12:41 51°18.554 2°51.178 10.7 124 13.1 102260 65
2004-02-04 12:42 51°18.557 2°51.261 11.5 102 13.1 102260 64
2004-02-04 12:43 51°18.55 2°51.328 12.9 90 13.1 102260 65
2004-02-04 12:44 51°18.549 2°51.381 12.7 86 13.2 102230 64
2004-02-04 12:45 51°18.542 2°51.435 11.1 75 13.2 102250 64
2004-02-04 12:46 51°18.434 2°51.566 17.3 57 13.3 102150 63
2004-02-04 12:47 51°18.253 2°51.749 16 60 13.2 102140 64
2004-02-04 12:48 51°18.062 2°51.913 17.3 53 13.1 102140 64
2004-02-04 12:49 51°17.87 2°52.076 15 56 13.2 102140 65
2004-02-04 12:50 51°17.677 2°52.24 15.5 54 13.1 102140 65
2004-02-04 12:51 51°17.484 2°52.401 16.5 54 13.2 102140 64
2004-02-04 12:52 51°17.292 2°52.567 16.3 47 13.3 102130 63
2004-02-04 12:53 51°17.1 2°52.728 16.1 48 13.4 102130 63
2004-02-04 12:54 51°16.908 2°52.893 15.7 53 13.5 102130 63
2004-02-04 12:55 51°16.717 2°53.067 16.8 56 13.6 102130 63
2004-02-04 12:56 51°16.555 2°53.298 11.1 77 13.7 102130 63
2004-02-04 12:57 51°16.5 2°53.532 11.1 101 13.6 102210 63
2004-02-04 12:58 51°16.486 2°53.654 13.2 100 13.6 102220 64
2004-02-04 12:59 51°16.487 2°53.717 11.9 90 13.9 102240 63
2004-02-04 13:00 51°16.472 2°53.784 12.9 61 13.9 102240 62
2004-02-04 13:01 51°16.448 2°53.831 12.2 44 13.7 102250 64
2004-02-04 13:02 51°16.426 2°53.852 11.5 20 13.8 102220 64
2004-02-04 13:03 51°16.413 2°53.85 11.2 350 13.9 102240 64
2004-02-04 13:04 51°16.419 2°53.828 11.6 309 13.8 102220 64
2004-02-04 13:05 51°16.45 2°53.8 12.4 294 13.8 102220 64
2004-02-04 13:06 51°16.489 2°53.775 11.6 287 13.8 102230 64
2004-02-04 13:07 51°16.539 2°53.754 11.6 261 13.7 102220 64
2004-02-04 13:08 51°16.599 2°53.748 8.9 241 13.7 102230 64
2004-02-04 13:09 51°16.663 2°53.776 8.1 229 13.5 102230 65
2004-02-04 13:10 51°16.72 2°53.825 7.9 208 13.4 102240 65
2004-02-04 13:11 51°16.766 2°53.893 9.1 168 13.4 102250 67
2004-02-04 13:12 51°16.795 2°53.976 9.2 136 13.4 102260 65
2004-02-04 13:13 51°16.805 2°54.057 10.1 111 13.2 102250 66
2004-02-04 13:14 51°16.799 2°54.131 12.2 88 13.2 102240 67
2004-02-04 13:15 51°16.79 2°54.191 8.8 79 13.3 102240 66
2004-02-04 13:16 51°16.789 2°54.242 10.6 84 13.4 102230 66
2004-02-04 13:17 51°16.729 2°54.308 16.1 41 13.5 102180 66
2004-02-04 13:18 51°16.537 2°54.378 17.5 29 13.7 102130 65
2004-02-04 13:19 51°16.329 2°54.369 18.8 23 13.9 102150 64
2004-02-04 13:20 51°16.122 2°54.326 20 25 14.1 102150 63
2004-02-04 13:21 51°15.914 2°54.282 18.6 25 14.2 102150 62
2004-02-04 13:22 51°15.705 2°54.238 18.2 25 14.3 102170 63
2004-02-04 13:23 51°15.496 2°54.195 18.2 29 14.3 102260 62
2004-02-04 13:24 51°15.288 2°54.152 18.6 26 14.4 102170 62
2004-02-04 13:25 51°15.079 2°54.11 19.1 22 14.6 102160 62
2004-02-04 13:26 51°14.871 2°54.068 18.9 24 14.9 102170 61
2004-02-04 13:27 51°14.675 2°54.033 15.6 30 15.1 102160 61
2004-02-04 13:28 51°14.584 2°54.084 13.6 68 15.4 102200 60
2004-02-04 13:29 51°14.567 2°54.13 12.3 60 15.4 102220 59
2004-02-04 13:30 51°14.567 2°54.167 11.9 61 15.7 102210 59
2004-02-04 13:31 51°14.573 2°54.202 10.9 66 15.7 102220 58
2004-02-04 13:32 51°14.58 2°54.237 10.3 66 15.5 102230 59
2004-02-04 13:33 51°14.589 2°54.27 10.4 66 15.5 102230 60
2004-02-04 13:34 51°14.6 2°54.304 8.1 73 15.6 102220 61
2004-02-04 13:35 51°14.609 2°54.339 11.1 94 15.5 102230 61
2004-02-04 13:36 51°14.619 2°54.373 11.7 91 15.5 102230 61
2004-02-04 13:37 51°14.628 2°54.409 13.3 84 15.6 102220 61
2004-02-04 13:38 51°14.638 2°54.444 12.1 92 15.7 102220 61
2004-02-04 13:39 51°14.648 2°54.478 10.9 93 15.7 102220 60
2004-02-04 13:40 51°14.622 2°54.551 10.7 74 15.7 102220 61
2004-02-04 13:41 51°14.522 2°54.728 10.8 76 15.7 102200 61
2004-02-04 13:42 51°14.413 2°54.963 12.4 78 15.8 102210 60